Time;durP1;ratioP1;P1;durP2;ratioP2;P2;SDS_P1;SDS_P2;PMS_P1;PMS_P2;Temp;Humidity;BMP_temperature;BMP_pressure;BME280_temperature;BME280_humidity;BME280_pressure;Samples;Min_cycle;Max_cycle;Signal;HPM_P1;HPM_P2
2021/07/28 00:01:25;;;;;;;10.68;5.74;;;;;;;15.21;93.42;99054.53;2014337;78;21527;-75
2021/07/28 00:04:27;;;;;;;7.54;6.04;;;;;;;15.21;93.50;99046.69;2017225;80;20227;-75
2021/07/28 00:07:30;;;;;;;11.10;5.56;;;;;;;15.20;93.61;99051.97;2017164;80;20152;-75
2021/07/28 00:10:33;;;;;;;7.03;5.35;;;;;;;15.21;93.53;99044.06;2017692;80;20812;-75
2021/07/28 00:13:36;;;;;;;6.04;5.38;;;;;;;15.19;93.15;99040.63;2017375;80;20282;-76
2021/07/28 00:16:39;;;;;;;8.41;5.43;;;;;;;15.18;92.68;99040.69;2016574;78;20254;-75
2021/07/28 00:20:00;;;;;;;9.21;5.13;;;;;;;15.17;92.37;99052.91;2017807;80;20657;-76
2021/07/28 00:23:15;;;;;;;5.88;5.22;;;;;;;15.09;92.12;99049.66;2017347;80;20179;-75
2021/07/28 00:26:18;;;;;;;6.00;5.24;;;;;;;15.06;92.24;99047.09;2017302;80;20738;-75
2021/07/28 00:29:21;;;;;;;5.20;4.70;;;;;;;15.05;92.26;99040.16;2017344;80;20670;-75
2021/07/28 00:32:23;;;;;;;8.64;4.57;;;;;;;15.03;92.18;99048.06;2012274;78;23787;-76
2021/07/28 00:35:26;;;;;;;6.32;4.66;;;;;;;15.01;92.11;99044.63;2012554;80;20208;-75
2021/07/28 00:38:28;;;;;;;4.63;4.07;;;;;;;15.02;91.83;99038.50;2012261;80;20288;-75
2021/07/28 00:41:31;;;;;;;5.07;4.57;;;;;;;15.00;91.78;99031.59;2012172;80;20652;-75
2021/07/28 00:44:34;;;;;;;6.38;4.95;;;;;;;14.99;91.72;99029.91;2011781;80;20396;-75
2021/07/28 00:47:36;;;;;;;5.07;4.68;;;;;;;14.95;91.90;99029.13;2015357;78;22927;-76
2021/07/28 00:50:39;;;;;;;10.77;4.57;;;;;;;14.97;91.76;99031.69;2017239;80;20164;-75
2021/07/28 00:53:42;;;;;;;7.35;4.18;;;;;;;14.93;91.59;99032.69;2016638;80;20221;-75
2021/07/28 00:56:45;;;;;;;6.84;4.24;;;;;;;14.85;91.68;99038.13;2017651;80;20338;-75
2021/07/28 00:59:48;;;;;;;6.20;4.59;;;;;;;14.78;92.00;99042.66;2016475;80;20203;-76
2021/07/28 01:02:51;;;;;;;6.50;3.96;;;;;;;14.76;92.31;99036.63;2011487;77;22076;-75
2021/07/28 01:05:57;;;;;;;5.75;4.38;;;;;;;14.74;92.52;99035.81;2011671;80;20221;-75
2021/07/28 01:09:00;;;;;;;5.93;4.43;;;;;;;14.76;92.59;99026.16;2011702;80;21004;-74
2021/07/28 01:12:05;;;;;;;8.96;4.91;;;;;;;14.75;92.51;99021.84;2011805;80;20197;-74
2021/07/28 01:15:09;;;;;;;14.27;4.95;;;;;;;14.76;92.42;99022.69;2011322;80;20184;-75
2021/07/28 01:18:16;;;;;;;7.91;5.60;;;;;;;14.70;92.47;99013.25;2016580;77;20625;-74
2021/07/28 01:21:20;;;;;;;7.34;5.89;;;;;;;14.71;93.24;99016.72;2017527;80;20713;-74
2021/07/28 01:24:22;;;;;;;10.20;5.95;;;;;;;14.73;93.63;99015.81;2017819;80;20179;-75
2021/07/28 01:27:26;;;;;;;12.44;5.78;;;;;;;14.75;93.51;99015.75;2017296;80;20381;-75
2021/07/28 01:30:30;;;;;;;6.65;5.55;;;;;;;14.74;93.81;99020.13;2017440;80;20241;-75
2021/07/28 01:33:44;;;;;;;9.31;5.40;;;;;;;14.76;93.57;99013.09;2013176;78;21724;-76
2021/07/28 01:36:48;;;;;;;7.93;5.40;;;;;;;14.79;93.33;99015.63;2012697;80;20552;-74
2021/07/28 01:39:51;;;;;;;7.89;5.36;;;;;;;14.76;93.20;99017.47;2012240;80;20717;-75
2021/07/28 01:42:53;;;;;;;8.76;4.96;;;;;;;14.76;93.17;99014.84;2013325;80;20224;-74
2021/07/28 01:45:58;;;;;;;11.32;5.72;;;;;;;14.75;92.92;99016.59;2013530;78;20617;-75
2021/07/28 01:49:00;;;;;;;5.91;5.31;;;;;;;14.76;92.76;99020.09;2017704;80;21306;-74
2021/07/28 01:52:03;;;;;;;6.01;4.82;;;;;;;14.77;92.69;99013.94;2017649;80;20637;-74
2021/07/28 01:55:07;;;;;;;9.82;5.50;;;;;;;14.78;92.55;99011.28;2017429;80;20254;-75
2021/07/28 01:58:27;;;;;;;5.82;5.05;;;;;;;14.76;92.54;99007.88;2017970;80;20207;-75
2021/07/28 02:01:30;;;;;;;8.54;5.11;;;;;;;14.78;92.58;99010.44;2015303;77;21489;-75
2021/07/28 02:04:32;;;;;;;10.84;5.28;;;;;;;14.77;92.65;99006.13;2013793;80;20201;-75
2021/07/28 02:07:35;;;;;;;10.80;5.81;;;;;;;14.74;92.63;99011.44;2013474;80;20172;-76
2021/07/28 02:10:48;;;;;;;10.02;5.01;;;;;;;14.70;92.56;99020.22;2014300;80;20203;-74
2021/07/28 02:13:50;;;;;;;8.61;5.51;;;;;;;14.69;92.75;99024.59;2013823;80;20723;-75
2021/07/28 02:16:53;;;;;;;9.24;5.38;;;;;;;14.69;92.55;99013.28;2017171;78;21373;-75
2021/07/28 02:19:56;;;;;;;7.72;4.90;;;;;;;14.65;92.77;99009.91;2018720;80;20368;-75
2021/07/28 02:23:00;;;;;;;15.13;6.01;;;;;;;14.69;92.86;99013.28;2019508;80;20156;-74
2021/07/28 02:26:03;;;;;;;6.39;5.74;;;;;;;14.70;93.00;99010.63;2018817;80;20341;-74
2021/07/28 02:29:05;;;;;;;9.05;5.79;;;;;;;14.74;92.84;98999.22;2019155;80;20312;-75
2021/07/28 02:32:08;;;;;;;7.00;5.68;;;;;;;14.79;92.97;99009.53;2014276;77;21956;-75
2021/07/28 02:35:14;;;;;;;8.43;5.44;;;;;;;14.84;93.11;99004.16;2013916;80;20283;-75
2021/07/28 02:38:17;;;;;;;10.79;5.74;;;;;;;14.89;93.26;98997.06;2013522;80;20234;-75
2021/07/28 02:41:19;;;;;;;8.46;5.44;;;;;;;14.92;93.57;99005.69;2013959;80;20193;-75
2021/07/28 02:44:22;;;;;;;11.24;5.78;;;;;;;14.97;93.43;99009.03;2014071;80;20202;-74
2021/07/28 02:47:25;;;;;;;8.16;5.30;;;;;;;15.00;93.55;99006.31;2017308;80;20902;-75
2021/07/28 02:50:28;;;;;;;8.56;5.05;;;;;;;15.01;93.42;99013.25;2019332;80;21734;-75
2021/07/28 02:53:30;;;;;;;8.71;5.40;;;;;;;15.02;93.51;99007.13;2019320;80;20168;-75
2021/07/28 02:56:33;;;;;;;7.13;5.31;;;;;;;15.07;93.46;99020.06;2019384;80;20197;-74
2021/07/28 02:59:35;;;;;;;9.36;5.09;;;;;;;15.10;93.48;99005.16;2018231;80;20180;-74
2021/07/28 03:02:38;;;;;;;8.25;4.95;;;;;;;15.13;93.40;99008.59;2013574;78;20297;-76
2021/07/28 03:05:42;;;;;;;8.07;5.90;;;;;;;15.17;93.43;99016.28;2013482;80;20727;-74
2021/07/28 03:08:45;;;;;;;6.00;5.13;;;;;;;15.20;93.37;99013.59;2013082;80;20202;-75
2021/07/28 03:11:48;;;;;;;6.40;5.45;;;;;;;15.24;93.35;99011.72;2012097;80;21331;-75
2021/07/28 03:14:50;;;;;;;11.15;5.24;;;;;;;15.27;93.32;99011.66;2012397;80;20222;-75
2021/07/28 03:17:53;;;;;;;9.86;5.49;;;;;;;15.28;93.12;99006.38;2017226;78;20211;-75
2021/07/28 03:20:55;;;;;;;7.66;5.80;;;;;;;15.30;93.03;99004.56;2018466;80;20221;-75
2021/07/28 03:23:58;;;;;;;6.57;5.95;;;;;;;15.28;93.04;98995.06;2018296;80;20257;-75
2021/07/28 03:27:01;;;;;;;10.27;6.69;;;;;;;15.29;93.03;98997.63;2018454;80;20204;-75
2021/07/28 03:30:04;;;;;;;6.88;6.09;;;;;;;15.30;92.77;98998.50;2017392;80;20164;-74
2021/07/28 03:33:07;;;;;;;8.96;5.32;;;;;;;15.29;92.62;98989.78;2012242;78;20252;-74
2021/07/28 03:36:09;;;;;;;6.35;4.97;;;;;;;15.25;92.63;98987.28;2012586;80;20365;-75
2021/07/28 03:39:12;;;;;;;8.30;5.41;;;;;;;15.24;92.44;98991.66;2012782;80;20348;-76
2021/07/28 03:42:14;;;;;;;6.47;5.43;;;;;;;15.22;92.21;98990.00;2012480;80;20238;-75
2021/07/28 03:45:17;;;;;;;10.81;5.46;;;;;;;15.16;92.01;98988.44;2012882;80;20566;-75
2021/07/28 03:48:20;;;;;;;8.77;5.63;;;;;;;15.11;92.17;98988.56;2016740;80;20988;-75
2021/07/28 03:51:22;;;;;;;9.27;6.18;;;;;;;15.07;92.32;98983.44;2017045;80;20228;-75
2021/07/28 03:54:25;;;;;;;11.00;6.19;;;;;;;15.02;92.57;98990.59;2018355;80;20695;-75
2021/07/28 03:57:27;;;;;;;9.96;5.46;;;;;;;14.98;92.95;98994.19;2017626;80;20176;-74
2021/07/28 04:00:31;;;;;;;10.65;5.51;;;;;;;14.98;93.01;98996.81;2017810;77;21601;-74
2021/07/28 04:03:33;;;;;;;9.24;5.81;;;;;;;14.95;93.02;98986.44;2018083;80;20809;-75
2021/07/28 04:06:36;;;;;;;10.01;5.74;;;;;;;14.92;93.21;98990.00;2017664;80;20257;-76
2021/07/28 04:09:39;;;;;;;12.90;5.90;;;;;;;14.92;93.34;98981.31;2017978;80;21058;-74
2021/07/28 04:12:41;;;;;;;12.52;5.24;;;;;;;14.94;93.35;98980.34;2020736;80;20187;-75
2021/07/28 04:15:44;;;;;;;16.00;4.94;;;;;;;14.94;93.25;98982.13;2015712;78;21661;-75
2021/07/28 04:18:46;;;;;;;10.15;5.51;;;;;;;14.93;93.12;98986.50;2012313;80;20282;-75
2021/07/28 04:21:49;;;;;;;12.91;5.61;;;;;;;14.94;93.13;98987.34;2012662;80;20205;-75
2021/07/28 04:24:51;;;;;;;8.71;5.69;;;;;;;14.93;93.44;98985.63;2012670;80;20965;-75
2021/07/28 04:27:54;;;;;;;12.06;5.88;;;;;;;15.00;93.41;98987.16;2012514;80;20319;-76
2021/07/28 04:30:57;;;;;;;8.60;5.36;;;;;;;15.01;93.41;98989.72;2013425;77;20179;-75
2021/07/28 04:33:59;;;;;;;7.06;5.74;;;;;;;14.98;93.16;98986.34;2017980;80;20183;-75
2021/07/28 04:37:03;;;;;;;10.60;5.65;;;;;;;14.97;93.25;98982.88;2017709;80;20890;-75
2021/07/28 04:40:06;;;;;;;7.55;5.61;;;;;;;15.04;93.06;98986.16;2017510;80;20276;-75
2021/07/28 04:43:09;;;;;;;9.44;5.38;;;;;;;15.10;93.13;98984.25;2017199;80;20229;-75
2021/07/28 04:46:11;;;;;;;7.63;5.64;;;;;;;15.13;93.11;98992.91;2017080;77;20404;-75
2021/07/28 04:49:14;;;;;;;6.99;5.13;;;;;;;15.13;93.17;98979.81;2013023;80;20649;-75
2021/07/28 04:52:22;;;;;;;7.43;5.49;;;;;;;15.17;93.42;98984.91;2017841;80;20191;-75
2021/07/28 04:55:25;;;;;;;7.65;5.51;;;;;;;15.24;93.43;98983.81;2017735;80;20179;-75
2021/07/28 04:58:28;;;;;;;10.11;5.49;;;;;;;15.28;93.27;98992.44;2020197;80;20189;-75
2021/07/28 05:01:31;;;;;;;7.39;5.76;;;;;;;15.27;93.07;98993.34;2014651;77;20348;-75
2021/07/28 05:04:34;;;;;;;11.18;5.81;;;;;;;15.30;92.95;99001.97;2011876;80;20294;-75
2021/07/28 05:07:37;;;;;;;7.80;5.11;;;;;;;15.34;92.97;99006.19;2015635;80;20244;-75
2021/07/28 05:10:39;;;;;;;7.53;5.82;;;;;;;15.39;92.90;99003.44;2011905;80;20176;-75
2021/07/28 05:13:42;;;;;;;9.76;6.22;;;;;;;15.39;92.97;99001.66;2012410;80;20253;-76
2021/07/28 05:16:44;;;;;;;10.96;5.54;;;;;;;15.39;93.06;98988.59;2013818;77;23043;-75
2021/07/28 05:19:47;;;;;;;7.47;5.86;;;;;;;15.43;93.28;98997.19;2016945;80;20696;-75
2021/07/28 05:22:51;;;;;;;8.74;5.55;;;;;;;15.49;93.28;98997.03;2018235;80;20216;-74
2021/07/28 05:25:53;;;;;;;9.89;5.72;;;;;;;15.53;93.24;99000.41;2017113;80;20501;-74
2021/07/28 05:28:56;;;;;;;10.54;6.89;;;;;;;15.58;93.23;99001.09;2017280;80;20245;-75
2021/07/28 05:31:58;;;;;;;8.80;5.57;;;;;;;15.61;92.98;98996.66;2013260;77;20836;-76
2021/07/28 05:35:02;;;;;;;9.24;6.05;;;;;;;15.63;93.13;99000.13;2015391;80;20208;-79
2021/07/28 05:38:05;;;;;;;8.31;5.38;;;;;;;15.67;93.20;99004.34;2013605;80;20259;-79
2021/07/28 05:41:08;;;;;;;13.15;6.10;;;;;;;15.75;93.24;99011.09;2012748;80;20164;-77
2021/07/28 05:44:10;;;;;;;6.61;5.90;;;;;;;15.74;93.21;99017.22;2012733;80;20180;-78
2021/07/28 05:47:13;;;;;;;6.69;6.06;;;;;;;15.78;93.43;99019.69;2014928;78;20207;-77
2021/07/28 05:50:16;;;;;;;13.49;6.44;;;;;;;15.72;93.42;99027.75;2016821;80;20187;-77
2021/07/28 05:53:18;;;;;;;8.16;6.38;;;;;;;15.70;93.86;99026.94;2018030;80;20273;-77
2021/07/28 05:56:21;;;;;;;9.98;6.26;;;;;;;15.74;94.12;99014.63;2016941;80;20565;-77
2021/07/28 05:59:24;;;;;;;8.52;6.05;;;;;;;15.77;94.50;99006.66;2017125;80;20320;-78
2021/07/28 06:02:30;;;;;;;9.56;6.35;;;;;;;15.86;94.49;99019.47;2012018;78;21986;-77
2021/07/28 06:05:33;;;;;;;8.45;5.78;;;;;;;15.97;94.51;99017.34;2011658;80;20285;-78
2021/07/28 06:08:36;;;;;;;9.39;5.60;;;;;;;16.10;94.49;99012.56;2012768;80;20622;-79
2021/07/28 06:11:38;;;;;;;7.90;7.00;;;;;;;16.26;94.43;99019.88;2012948;80;20205;-79
2021/07/28 06:14:40;;;;;;;10.38;6.75;;;;;;;16.41;94.24;99009.78;2013621;80;20210;-78
2021/07/28 06:17:43;;;;;;;8.89;6.09;;;;;;;16.53;93.79;99017.25;2017465;77;21876;-78
2021/07/28 06:20:46;;;;;;;7.82;6.18;;;;;;;16.60;93.05;99018.72;2016758;80;20663;-78
2021/07/28 06:23:48;;;;;;;7.91;5.96;;;;;;;16.70;92.79;99030.66;2017871;80;20215;-77
2021/07/28 06:26:51;;;;;;;9.32;6.80;;;;;;;16.81;92.43;99032.88;2018143;80;20321;-79
2021/07/28 06:29:53;;;;;;;11.79;6.38;;;;;;;16.97;92.11;99020.94;2019797;80;20330;-80
2021/07/28 06:32:56;;;;;;;7.99;6.71;;;;;;;17.02;91.65;99033.88;2020047;77;20544;-79
2021/07/28 06:35:59;;;;;;;10.71;5.97;;;;;;;17.17;91.59;99020.19;2021472;80;20461;-80
2021/07/28 06:39:02;;;;;;;8.71;6.04;;;;;;;17.31;91.35;99020.56;2021901;80;20203;-79
2021/07/28 06:42:04;;;;;;;7.61;5.79;;;;;;;17.38;90.74;99016.78;2019967;80;20556;-79
2021/07/28 06:45:07;;;;;;;10.96;6.28;;;;;;;17.49;90.52;99013.75;2018908;80;20210;-80
2021/07/28 06:48:10;;;;;;;7.71;5.79;;;;;;;17.52;89.85;99017.09;2012189;78;21611;-79
2021/07/28 06:51:14;;;;;;;8.70;6.20;;;;;;;17.43;88.91;99016.63;2013932;80;20316;-78
2021/07/28 06:54:16;;;;;;;10.01;5.63;;;;;;;17.39;88.90;99022.88;2013007;80;20251;-80
2021/07/28 06:57:19;;;;;;;9.48;5.54;;;;;;;17.36;89.17;99023.00;2013683;80;20803;-79
2021/07/28 07:00:22;;;;;;;10.73;6.65;;;;;;;17.41;89.47;99032.41;2013592;78;23994;-79
2021/07/28 07:03:24;;;;;;;7.38;5.88;;;;;;;17.46;89.72;99032.25;2018602;80;20229;-78
2021/07/28 07:06:27;;;;;;;7.68;5.85;;;;;;;17.43;89.34;99045.50;2017341;80;20227;-80
2021/07/28 07:09:29;;;;;;;8.44;6.40;;;;;;;17.42;89.46;99042.00;2018121;80;20227;-82
2021/07/28 07:12:32;;;;;;;10.35;5.60;;;;;;;17.41;89.47;99037.66;2021056;80;20164;-83
2021/07/28 07:15:35;;;;;;;9.73;5.90;;;;;;;17.39;89.17;99025.50;2020912;78;21377;-82
2021/07/28 07:18:38;;;;;;;6.26;5.66;;;;;;;17.32;88.95;99027.50;2019305;80;20332;-78
2021/07/28 07:21:40;;;;;;;10.31;5.61;;;;;;;17.33;89.23;99026.59;2019399;80;20212;-81
2021/07/28 07:24:43;;;;;;;9.63;6.36;;;;;;;17.40;89.71;99032.47;2021006;80;21022;-81
2021/07/28 07:27:46;;;;;;;9.05;6.15;;;;;;;17.40;89.60;99030.69;2021271;80;20172;-81
2021/07/28 07:30:50;;;;;;;8.94;5.71;;;;;;;17.47;89.75;99029.56;2013187;77;24084;-79
2021/07/28 07:33:53;;;;;;;9.69;6.04;;;;;;;17.58;89.43;99031.75;2012391;80;20188;-78
2021/07/28 07:36:56;;;;;;;9.66;6.66;;;;;;;17.60;89.43;99039.59;2011593;80;20305;-78
2021/07/28 07:39:58;;;;;;;7.06;6.25;;;;;;;17.52;89.13;99040.72;2011566;80;20254;-79
2021/07/28 07:43:01;;;;;;;8.77;6.41;;;;;;;17.49;89.29;99040.84;2013039;80;20269;-79
2021/07/28 07:46:03;;;;;;;13.65;6.61;;;;;;;17.50;89.34;99039.09;2013186;77;20796;-79
2021/07/28 07:49:06;;;;;;;13.40;6.94;;;;;;;17.53;89.51;99041.59;2017941;80;20183;-80
2021/07/28 07:52:09;;;;;;;8.98;6.65;;;;;;;17.56;89.72;99046.72;2017753;80;20574;-79
2021/07/28 07:55:12;;;;;;;9.81;6.55;;;;;;;17.64;89.87;99047.28;2017746;80;20229;-80
2021/07/28 07:58:14;;;;;;;9.25;6.78;;;;;;;17.72;89.59;99047.00;2018499;80;20187;-80
2021/07/28 08:01:17;;;;;;;8.18;6.46;;;;;;;17.74;89.04;99043.41;2015638;77;20261;-81
2021/07/28 08:04:23;;;;;;;10.13;6.55;;;;;;;17.87;89.28;99037.69;2021216;80;20248;-81
2021/07/28 08:07:26;;;;;;;9.34;7.34;;;;;;;17.98;88.99;99030.25;2020727;80;20184;-83
2021/07/28 08:10:29;;;;;;;10.00;6.70;;;;;;;18.09;88.27;99035.91;2020156;80;20172;-83
2021/07/28 08:13:31;;;;;;;10.10;6.81;;;;;;;18.09;87.67;99039.38;2020717;80;20246;-83
2021/07/28 08:16:34;;;;;;;9.63;6.70;;;;;;;18.19;87.20;99032.00;2021463;78;22252;-82
2021/07/28 08:19:37;;;;;;;9.36;6.90;;;;;;;18.33;87.26;99032.28;2023669;80;20282;-82
2021/07/28 08:22:40;;;;;;;7.97;6.24;;;;;;;18.50;87.03;99028.09;2025023;80;20193;-82
2021/07/28 08:25:42;;;;;;;13.84;6.93;;;;;;;18.59;86.14;99030.31;2023599;80;20225;-82
2021/07/28 08:28:45;;;;;;;9.66;6.45;;;;;;;18.62;85.31;99030.19;2024087;80;20176;-81
2021/07/28 08:31:47;;;;;;;7.78;6.43;;;;;;;18.57;84.80;99021.63;2026869;80;20163;-82
2021/07/28 08:34:50;;;;;;;9.21;6.09;;;;;;;18.61;84.85;99031.09;2031534;80;20195;-84
2021/07/28 08:38:00;;;;;;;8.94;6.53;;;;;;;18.53;84.27;99025.31;2027103;80;20193;-84
2021/07/28 08:41:19;;;;;;;8.59;6.40;;;;;;;18.54;84.68;99029.66;2029060;69;20229;-82
2021/07/28 08:44:22;;;;;;;6.56;5.96;;;;;;;18.60;84.59;99032.88;2021131;80;20152;-80
2021/07/28 08:47:28;;;;;;;9.56;6.60;;;;;;;18.50;84.32;99036.84;2021086;77;21424;-83
2021/07/28 08:50:31;;;;;;;9.25;6.51;;;;;;;18.31;85.18;99035.88;2022694;80;20173;-81
2021/07/28 08:53:33;;;;;;;9.25;7.04;;;;;;;18.22;85.97;99039.75;2015358;80;20196;-80
2021/07/28 08:56:40;;;;;;;8.84;6.46;;;;;;;18.19;86.85;99039.03;2018528;80;20724;-81
2021/07/28 08:59:43;;;;;;;10.41;7.25;;;;;;;18.29;87.87;99041.19;2021945;80;20210;-80
2021/07/28 09:02:47;;;;;;;11.59;7.15;;;;;;;18.48;88.57;99035.16;2020881;77;20289;-82
2021/07/28 09:05:51;;;;;;;7.65;6.68;;;;;;;18.54;88.25;99032.28;2019994;80;20290;-82
2021/07/28 09:08:59;;;;;;;8.66;6.26;;;;;;;18.63;88.50;99035.41;2021830;80;20198;-83
2021/07/28 09:12:02;;;;;;;9.30;6.25;;;;;;;18.77;88.56;99033.97;2023994;80;20195;-83
2021/07/28 09:15:06;;;;;;;6.29;5.41;;;;;;;18.92;87.73;99035.94;2022365;80;20175;-84
2021/07/28 09:18:30;;;;;;;6.75;5.21;;;;;;;19.13;87.13;99036.75;2022383;80;20200;-84
2021/07/28 09:21:33;;;;;;;5.21;4.71;;;;;;;19.37;86.11;99030.34;2021261;80;20261;-82
2021/07/28 09:24:37;;;;;;;5.05;4.39;;;;;;;19.53;85.78;99030.50;2020641;80;20201;-82
2021/07/28 09:27:43;;;;;;;5.78;4.13;;;;;;;19.60;84.91;99047.78;2018996;80;20172;-81
2021/07/28 09:30:45;;;;;;;4.21;3.90;;;;;;;19.59;83.87;99051.34;2013762;80;20202;-80
2021/07/28 09:34:15;;;;;;;5.36;3.97;;;;;;;19.59;84.15;99040.81;2012795;80;20217;-79
2021/07/28 09:37:17;;;;;;;5.29;4.03;;;;;;;19.76;84.12;99046.13;2012565;80;20185;-78
2021/07/28 09:40:22;;;;;;;4.76;3.83;;;;;;;19.78;82.43;99052.19;2015744;80;20179;-78
2021/07/28 09:43:25;;;;;;;3.64;3.34;;;;;;;19.91;82.84;99060.34;2018397;80;20753;-78
2021/07/28 09:46:34;;;;;;;3.16;2.96;;;;;;;20.00;82.80;99061.69;2018595;80;20235;-79
2021/07/28 09:49:42;;;;;;;3.42;3.13;;;;;;;20.10;82.24;99057.66;2020537;80;20259;-81
2021/07/28 09:52:45;;;;;;;3.80;3.34;;;;;;;20.10;81.74;99055.88;2021882;80;20203;-80
2021/07/28 09:55:55;;;;;;;2.94;2.60;;;;;;;20.19;82.86;99058.09;2022935;80;20268;-81
2021/07/28 09:58:59;;;;;;;3.44;2.50;;;;;;;20.23;81.36;99064.91;2022163;80;20215;-81
2021/07/28 10:02:03;;;;;;;6.46;2.06;;;;;;;20.09;79.66;99059.47;2029323;80;25696;-83
2021/07/28 10:05:07;;;;;;;7.74;2.17;;;;;;;20.20;80.40;99054.53;2031248;80;20273;-80
2021/07/28 10:08:12;;;;;;;2.46;2.25;;;;;;;20.40;79.41;99056.19;2031359;80;20244;-82
2021/07/28 10:11:15;;;;;;;2.33;1.81;;;;;;;20.91;79.54;99054.50;2027171;80;20301;-81
2021/07/28 10:14:20;;;;;;;1.61;1.51;;;;;;;21.01;75.50;99053.09;2031052;80;20206;-81
2021/07/28 10:17:24;;;;;;;2.15;1.92;;;;;;;21.20;75.41;99045.06;2023655;77;23059;-81
2021/07/28 10:20:27;;;;;;;4.45;1.88;;;;;;;21.31;74.04;99047.13;2023091;80;20657;-81
2021/07/28 10:23:30;;;;;;;1.89;1.70;;;;;;;21.23;74.25;99047.53;2022247;80;20179;-80
2021/07/28 10:26:37;;;;;;;2.06;1.85;;;;;;;21.08;72.42;99045.69;2023781;80;20245;-82
2021/07/28 10:29:41;;;;;;;2.09;1.80;;;;;;;21.09;73.20;99048.25;2021778;80;20463;-81
2021/07/28 10:32:44;;;;;;;1.71;1.61;;;;;;;21.64;74.30;99053.25;2026288;77;24762;-79
2021/07/28 10:35:50;;;;;;;1.50;1.40;;;;;;;21.90;71.63;99049.16;2026800;80;20752;-81
2021/07/28 10:38:56;;;;;;;3.19;1.67;;;;;;;21.97;71.82;99047.00;2026728;80;20255;-81
2021/07/28 10:41:58;;;;;;;1.64;1.54;;;;;;;21.96;70.52;99043.53;2028244;80;20175;-81
2021/07/28 10:45:05;;;;;;;2.15;1.55;;;;;;;22.15;71.98;99037.22;2028613;80;20949;-81
2021/07/28 10:48:07;;;;;;;1.58;1.48;;;;;;;22.35;69.49;99041.34;2017862;77;21363;-79
2021/07/28 10:51:10;;;;;;;1.60;1.46;;;;;;;22.80;68.70;99035.13;2020116;80;20307;-81
2021/07/28 10:54:13;;;;;;;3.36;1.41;;;;;;;23.24;68.59;99035.13;2021420;80;20181;-82
2021/07/28 10:57:34;;;;;;;2.28;1.33;;;;;;;23.65;65.31;99035.19;2019855;80;20210;-81
2021/07/28 11:00:39;;;;;;;2.13;1.45;;;;;;;23.81;63.95;99030.63;2020431;77;27102;-81
2021/07/28 11:03:42;;;;;;;3.64;1.39;;;;;;;23.52;62.60;99021.00;2030371;80;20179;-81
2021/07/28 11:06:48;;;;;;;2.47;1.20;;;;;;;23.49;63.09;99029.13;2031295;80;20254;-82
2021/07/28 11:10:04;;;;;;;2.71;1.36;;;;;;;23.56;62.80;99024.31;2029958;80;20232;-82
2021/07/28 11:13:12;;;;;;;5.68;2.08;;;;;;;23.65;62.94;99029.88;2031681;80;20202;-82
2021/07/28 11:16:15;;;;;;;;;;;;;;;23.55;62.54;99031.41;2027942;77;25557;-81
2021/07/28 11:19:19;;;;;;;1.63;1.20;;;;;;;23.25;61.95;99028.00;2024050;80;20158;-82
2021/07/28 11:22:25;;;;;;;3.58;1.27;;;;;;;22.92;64.03;99039.72;2021040;80;20198;-81
2021/07/28 11:25:32;;;;;;;1.75;1.10;;;;;;;22.54;64.92;99047.28;2023017;80;20241;-81
2021/07/28 11:28:34;;;;;;;2.58;1.30;;;;;;;22.05;66.87;99050.09;2022769;80;20348;-79
2021/07/28 12:16:04;;;;;;;1.64;0.80;;;;;;;22.13;68.68;99055.81;2035730;69;20232;-83
2021/07/28 12:33:31;;;;;;;0.90;0.90;;;;;;;21.96;69.04;99064.66;2047265;70;20389;-85
2021/07/28 12:36:35;;;;;;;1.24;0.89;;;;;;;21.96;68.66;99072.59;2036974;80;20185;-85
2021/07/28 12:39:38;;;;;;;1.17;0.80;;;;;;;22.07;69.24;99068.53;2036351;80;20128;-84
2021/07/28 12:46:59;;;;;;;0.93;0.69;;;;;;;22.92;65.69;99066.19;2037193;69;190595;-84
2021/07/28 12:50:02;;;;;;;1.51;0.80;;;;;;;22.68;65.37;99057.06;2035949;80;20191;-84
2021/07/28 12:53:05;;;;;;;0.88;0.80;;;;;;;22.68;66.88;99059.69;2037004;80;20195;-83
2021/07/28 12:56:08;;;;;;;2.83;0.80;;;;;;;22.60;65.59;99068.94;2032074;80;20184;-83
2021/07/28 12:59:11;;;;;;;2.53;0.70;;;;;;;22.45;64.69;99061.91;2029287;80;20172;-84
2021/07/28 13:02:16;;;;;;;0.70;0.70;;;;;;;22.38;66.30;99065.84;2029972;77;257734;-84
2021/07/28 13:05:24;;;;;;;4.04;0.70;;;;;;;22.56;66.53;99055.97;2036796;80;20628;-84
2021/07/28 13:08:27;;;;;;;1.53;0.70;;;;;;;23.02;65.23;99045.31;2031253;80;20229;-85
2021/07/28 13:11:29;;;;;;;1.13;0.70;;;;;;;23.39;64.17;99049.22;2030878;80;20163;-83
2021/07/28 13:14:33;;;;;;;0.70;0.63;;;;;;;23.51;61.67;99051.94;2121545;69;20201;-83
2021/07/28 13:21:02;;;;;;;1.30;0.69;;;;;;;23.76;61.41;99053.06;2048372;69;20339;-81
2021/07/28 13:24:06;;;;;;;3.14;0.69;;;;;;;24.18;62.76;99053.91;2020880;80;20271;-80
2021/07/28 13:27:08;;;;;;;1.75;0.60;;;;;;;24.34;59.78;99046.66;2021095;80;20216;-81
2021/07/28 13:30:11;;;;;;;0.74;0.60;;;;;;;24.45;59.70;99044.16;2023479;80;20214;-82
2021/07/28 13:33:14;;;;;;;0.79;0.60;;;;;;;24.31;58.50;99046.88;2028553;78;26036;-81
2021/07/28 13:36:17;;;;;;;1.42;0.70;;;;;;;24.04;59.29;99057.44;2014668;80;20308;-77
2021/07/28 13:39:19;;;;;;;3.49;0.70;;;;;;;23.74;58.44;99061.13;2016616;80;20188;-80
2021/07/28 13:42:22;;;;;;;2.31;0.60;;;;;;;23.41;59.87;99065.88;2028311;80;20202;-83
2021/07/28 13:45:25;;;;;;;1.34;0.60;;;;;;;23.15;61.56;99064.81;2014071;77;20229;-80
2021/07/28 13:48:29;;;;;;;1.39;0.57;;;;;;;23.04;62.74;99062.81;2026572;80;20210;-82
2021/07/28 13:51:32;;;;;;;4.59;0.60;;;;;;;22.88;64.31;99062.91;2023660;80;20193;-84
2021/07/28 13:54:35;;;;;;;2.01;0.64;;;;;;;22.83;65.01;99058.81;2022715;80;20180;-81
2021/07/28 13:57:37;;;;;;;4.25;0.60;;;;;;;22.81;64.59;99055.38;2021513;80;20198;-83
2021/07/28 14:00:40;;;;;;;1.56;0.70;;;;;;;22.95;62.97;99059.88;2028564;78;20249;-82
2021/07/28 14:03:43;;;;;;;1.71;0.70;;;;;;;23.39;63.81;99051.88;2030497;80;20212;-82
2021/07/28 14:06:46;;;;;;;0.64;0.60;;;;;;;23.75;61.46;99049.56;2032144;80;20175;-78
2021/07/28 14:09:48;;;;;;;0.96;0.60;;;;;;;23.99;60.28;99060.41;2019238;80;20261;-77
2021/07/28 14:12:51;;;;;;;1.09;0.59;;;;;;;24.05;57.57;99045.88;2018156;80;20192;-76
2021/07/28 14:15:54;;;;;;;1.39;0.56;;;;;;;24.27;57.60;99048.84;2012697;80;20614;-76
2021/07/28 14:18:56;;;;;;;1.35;0.60;;;;;;;24.27;54.90;99037.38;2018469;80;20274;-80
2021/07/28 14:21:59;;;;;;;1.60;0.55;;;;;;;24.07;56.40;99055.47;2021225;80;20219;-79
2021/07/28 14:25:03;;;;;;;0.81;0.50;;;;;;;24.16;56.80;99042.53;2016099;80;20496;-79
2021/07/28 14:28:07;;;;;;;1.46;0.54;;;;;;;24.00;55.14;99046.19;2018143;80;20604;-78
2021/07/28 14:31:10;;;;;;;1.13;0.50;;;;;;;24.16;57.69;99047.84;2016369;78;26939;-78
2021/07/28 14:34:12;;;;;;;3.30;0.60;;;;;;;24.21;56.07;99038.63;2013417;80;20662;-77
2021/07/28 14:37:15;;;;;;;0.52;0.50;;;;;;;24.19;54.33;99034.38;2012818;80;20173;-77
2021/07/28 14:40:18;;;;;;;1.19;0.61;;;;;;;23.98;53.86;99045.44;2013233;80;20192;-77
2021/07/28 14:43:20;;;;;;;3.56;0.41;;;;;;;23.85;55.19;99031.25;2013183;80;20202;-77
2021/07/28 14:46:23;;;;;;;0.95;0.50;;;;;;;23.56;55.56;99035.75;2010975;77;20753;-77
2021/07/28 14:49:26;;;;;;;0.63;0.50;;;;;;;23.36;56.57;99038.81;2012610;80;20192;-77
2021/07/28 14:52:29;;;;;;;0.80;0.50;;;;;;;23.20;56.42;99037.09;2014511;80;20685;-80
2021/07/28 14:55:32;;;;;;;0.63;0.60;;;;;;;22.98;57.29;99043.78;2012589;80;20253;-79
2021/07/28 14:58:36;;;;;;;3.00;0.56;;;;;;;22.85;58.75;99046.34;2014962;80;20226;-79
2021/07/28 15:01:38;;;;;;;1.36;0.60;;;;;;;22.74;59.14;99043.44;2013424;77;22448;-79
2021/07/28 15:04:42;;;;;;;5.99;0.75;;;;;;;22.61;58.61;99046.81;2014579;80;20574;-79
2021/07/28 15:07:44;;;;;;;1.10;0.60;;;;;;;22.48;59.05;99052.94;2013098;80;20225;-79
2021/07/28 15:10:48;;;;;;;2.01;0.60;;;;;;;22.45;60.11;99051.31;2011092;80;20241;-79
2021/07/28 15:13:50;;;;;;;0.80;0.60;;;;;;;22.37;60.47;99047.41;2014271;80;20557;-80
2021/07/28 15:16:53;;;;;;;3.42;0.55;;;;;;;22.30;60.13;99047.78;2016759;78;21851;-80
2021/07/28 15:19:55;;;;;;;1.29;0.50;;;;;;;22.26;61.16;99040.06;2018445;80;20187;-79
2021/07/28 15:22:58;;;;;;;3.05;0.82;;;;;;;22.15;61.48;99047.78;2018123;80;20931;-79
2021/07/28 15:26:01;;;;;;;1.88;0.51;;;;;;;;;;2018553;80;20189;-80
2021/07/28 15:29:04;;;;;;;1.10;0.70;;;;;;;22.42;62.94;99040.91;2019535;80;20187;-80